sensor_id;sensor_type;location;lat;lon;timestamp;temperature;humidity
7496;DHT22;3789;47.064;15.482;2023-07-13T00:01:07;20.80;99.90
7496;DHT22;3789;47.064;15.482;2023-07-13T00:03:36;20.80;99.90
7496;DHT22;3789;47.064;15.482;2023-07-13T00:06:23;20.90;99.90
7496;DHT22;3789;47.064;15.482;2023-07-13T00:08:55;21.10;99.90
7496;DHT22;3789;47.064;15.482;2023-07-13T00:11:30;21.10;99.90
7496;DHT22;3789;47.064;15.482;2023-07-13T00:14:02;21.00;99.90
7496;DHT22;3789;47.064;15.482;2023-07-13T00:16:39;20.90;99.90
7496;DHT22;3789;47.064;15.482;2023-07-13T00:19:18;20.70;99.90
7496;DHT22;3789;47.064;15.482;2023-07-13T00:21:53;20.60;99.90
7496;DHT22;3789;47.064;15.482;2023-07-13T00:24:27;20.60;99.90
7496;DHT22;3789;47.064;15.482;2023-07-13T00:27:06;20.30;99.90
7496;DHT22;3789;47.064;15.482;2023-07-13T00:29:38;20.20;99.90
7496;DHT22;3789;47.064;15.482;2023-07-13T00:32:08;20.00;99.90
7496;DHT22;3789;47.064;15.482;2023-07-13T00:34:43;20.00;99.90
7496;DHT22;3789;47.064;15.482;2023-07-13T00:37:12;20.10;99.90
7496;DHT22;3789;47.064;15.482;2023-07-13T00:39:42;20.10;99.90
7496;DHT22;3789;47.064;15.482;2023-07-13T00:42:10;20.00;99.90
7496;DHT22;3789;47.064;15.482;2023-07-13T00:44:40;19.90;99.90
7496;DHT22;3789;47.064;15.482;2023-07-13T00:47:32;19.70;99.90
7496;DHT22;3789;47.064;15.482;2023-07-13T00:50:04;19.50;99.90
7496;DHT22;3789;47.064;15.482;2023-07-13T00:52:41;19.40;99.90
7496;DHT22;3789;47.064;15.482;2023-07-13T00:55:16;19.50;99.90
7496;DHT22;3789;47.064;15.482;2023-07-13T00:57:46;19.50;99.90
7496;DHT22;3789;47.064;15.482;2023-07-13T01:00:20;19.50;99.90
7496;DHT22;3789;47.064;15.482;2023-07-13T01:03:10;19.40;99.90
7496;DHT22;3789;47.064;15.482;2023-07-13T01:05:39;19.30;99.90
7496;DHT22;3789;47.064;15.482;2023-07-13T01:08:11;19.20;99.90
7496;DHT22;3789;47.064;15.482;2023-07-13T01:10:40;19.10;99.90
7496;DHT22;3789;47.064;15.482;2023-07-13T01:13:12;19.10;99.90
7496;DHT22;3789;47.064;15.482;2023-07-13T01:15:49;19.20;99.90
7496;DHT22;3789;47.064;15.482;2023-07-13T01:18:27;19.10;99.90
7496;DHT22;3789;47.064;15.482;2023-07-13T01:21:08;19.10;99.90
7496;DHT22;3789;47.064;15.482;2023-07-13T01:23:46;19.10;99.90
7496;DHT22;3789;47.064;15.482;2023-07-13T01:26:16;19.20;99.90
7496;DHT22;3789;47.064;15.482;2023-07-13T01:28:44;19.10;99.90
7496;DHT22;3789;47.064;15.482;2023-07-13T01:31:14;19.20;99.90
7496;DHT22;3789;47.064;15.482;2023-07-13T01:33:56;19.40;99.90
7496;DHT22;3789;47.064;15.482;2023-07-13T01:36:27;19.40;99.90
7496;DHT22;3789;47.064;15.482;2023-07-13T01:38:59;19.30;99.90
7496;DHT22;3789;47.064;15.482;2023-07-13T01:41:32;19.20;99.90
7496;DHT22;3789;47.064;15.482;2023-07-13T01:44:07;19.10;99.90
7496;DHT22;3789;47.064;15.482;2023-07-13T01:46:46;19.00;99.90
7496;DHT22;3789;47.064;15.482;2023-07-13T01:49:24;18.90;99.90
7496;DHT22;3789;47.064;15.482;2023-07-13T01:51:52;18.80;99.90
7496;DHT22;3789;47.064;15.482;2023-07-13T01:54:23;18.60;99.90
7496;DHT22;3789;47.064;15.482;2023-07-13T01:56:53;18.50;99.90
7496;DHT22;3789;47.064;15.482;2023-07-13T01:59:22;18.30;99.90
7496;DHT22;3789;47.064;15.482;2023-07-13T02:01:54;18.20;99.90
7496;DHT22;3789;47.064;15.482;2023-07-13T02:04:22;18.10;99.90
7496;DHT22;3789;47.064;15.482;2023-07-13T02:06:51;18.10;99.90
7496;DHT22;3789;47.064;15.482;2023-07-13T02:09:30;18.10;99.90
7496;DHT22;3789;47.064;15.482;2023-07-13T02:12:00;18.10;99.90
7496;DHT22;3789;47.064;15.482;2023-07-13T02:14:31;18.20;99.90
7496;DHT22;3789;47.064;15.482;2023-07-13T02:17:04;18.20;99.90
7496;DHT22;3789;47.064;15.482;2023-07-13T02:19:36;18.20;99.90
7496;DHT22;3789;47.064;15.482;2023-07-13T02:22:05;18.10;99.90
7496;DHT22;3789;47.064;15.482;2023-07-13T02:24:43;18.00;99.90
7496;DHT22;3789;47.064;15.482;2023-07-13T02:27:11;18.00;99.90
7496;DHT22;3789;47.064;15.482;2023-07-13T02:29:48;17.90;99.90
7496;DHT22;3789;47.064;15.482;2023-07-13T02:32:26;17.60;99.90
7496;DHT22;3789;47.064;15.482;2023-07-13T02:34:55;17.50;99.90
7496;DHT22;3789;47.064;15.482;2023-07-13T02:37:27;17.30;99.90
7496;DHT22;3789;47.064;15.482;2023-07-13T02:40:01;17.20;99.90
7496;DHT22;3789;47.064;15.482;2023-07-13T02:42:43;17.20;99.90
7496;DHT22;3789;47.064;15.482;2023-07-13T02:45:12;17.00;99.90
7496;DHT22;3789;47.064;15.482;2023-07-13T02:48:03;17.00;99.90
7496;DHT22;3789;47.064;15.482;2023-07-13T02:50:36;16.90;99.90
7496;DHT22;3789;47.064;15.482;2023-07-13T02:53:08;16.80;99.90
7496;DHT22;3789;47.064;15.482;2023-07-13T02:55:40;17.00;99.90
7496;DHT22;3789;47.064;15.482;2023-07-13T02:58:08;17.10;99.90
7496;DHT22;3789;47.064;15.482;2023-07-13T03:00:38;17.10;99.90
7496;DHT22;3789;47.064;15.482;2023-07-13T03:03:12;17.20;99.90
7496;DHT22;3789;47.064;15.482;2023-07-13T03:05:44;17.20;99.90
7496;DHT22;3789;47.064;15.482;2023-07-13T03:08:18;17.30;99.90
7496;DHT22;3789;47.064;15.482;2023-07-13T03:10:48;17.30;99.90
7496;DHT22;3789;47.064;15.482;2023-07-13T03:13:19;17.30;99.90
7496;DHT22;3789;47.064;15.482;2023-07-13T03:15:50;17.40;99.90
7496;DHT22;3789;47.064;15.482;2023-07-13T03:18:18;17.40;99.90
7496;DHT22;3789;47.064;15.482;2023-07-13T03:20:51;17.40;99.90
7496;DHT22;3789;47.064;15.482;2023-07-13T03:23:30;17.40;99.90
7496;DHT22;3789;47.064;15.482;2023-07-13T03:26:09;17.60;99.90
7496;DHT22;3789;47.064;15.482;2023-07-13T03:28:51;17.60;99.90
7496;DHT22;3789;47.064;15.482;2023-07-13T03:31:30;17.60;99.90
7496;DHT22;3789;47.064;15.482;2023-07-13T03:34:05;17.70;99.90
7496;DHT22;3789;47.064;15.482;2023-07-13T03:36:40;17.70;99.90
7496;DHT22;3789;47.064;15.482;2023-07-13T03:39:14;17.50;99.90
7496;DHT22;3789;47.064;15.482;2023-07-13T03:41:45;17.20;99.90
7496;DHT22;3789;47.064;15.482;2023-07-13T03:44:21;17.10;99.90
7496;DHT22;3789;47.064;15.482;2023-07-13T03:46:51;16.90;99.90
7496;DHT22;3789;47.064;15.482;2023-07-13T03:49:20;16.80;99.90
7496;DHT22;3789;47.064;15.482;2023-07-13T03:51:48;16.90;99.90
7496;DHT22;3789;47.064;15.482;2023-07-13T03:54:21;16.80;99.90
7496;DHT22;3789;47.064;15.482;2023-07-13T03:56:51;16.90;99.90
7496;DHT22;3789;47.064;15.482;2023-07-13T03:59:20;16.90;99.90
7496;DHT22;3789;47.064;15.482;2023-07-13T04:01:49;17.00;99.90
7496;DHT22;3789;47.064;15.482;2023-07-13T04:04:18;17.00;99.90
7496;DHT22;3789;47.064;15.482;2023-07-13T04:06:49;17.10;99.90
7496;DHT22;3789;47.064;15.482;2023-07-13T04:09:30;17.10;99.90
7496;DHT22;3789;47.064;15.482;2023-07-13T04:12:00;17.20;99.90
7496;DHT22;3789;47.064;15.482;2023-07-13T04:14:32;17.20;99.90
7496;DHT22;3789;47.064;15.482;2023-07-13T04:17:01;17.20;99.90
7496;DHT22;3789;47.064;15.482;2023-07-13T04:19:31;17.30;99.90
7496;DHT22;3789;47.064;15.482;2023-07-13T04:22:06;17.30;99.90
7496;DHT22;3789;47.064;15.482;2023-07-13T04:24:33;17.40;99.90
7496;DHT22;3789;47.064;15.482;2023-07-13T04:27:04;17.50;99.90
7496;DHT22;3789;47.064;15.482;2023-07-13T04:29:36;17.60;99.90
7496;DHT22;3789;47.064;15.482;2023-07-13T04:32:05;17.70;99.90
7496;DHT22;3789;47.064;15.482;2023-07-13T04:34:34;17.70;99.90
7496;DHT22;3789;47.064;15.482;2023-07-13T04:37:12;17.70;99.90
7496;DHT22;3789;47.064;15.482;2023-07-13T04:39:41;17.70;99.90
7496;DHT22;3789;47.064;15.482;2023-07-13T04:42:10;17.70;99.90
7496;DHT22;3789;47.064;15.482;2023-07-13T04:44:51;17.70;99.90
7496;DHT22;3789;47.064;15.482;2023-07-13T04:47:21;17.80;99.90
7496;DHT22;3789;47.064;15.482;2023-07-13T04:49:50;17.90;99.90
7496;DHT22;3789;47.064;15.482;2023-07-13T04:52:26;18.10;99.90
7496;DHT22;3789;47.064;15.482;2023-07-13T04:54:55;18.30;99.90
7496;DHT22;3789;47.064;15.482;2023-07-13T04:57:32;18.40;99.90
7496;DHT22;3789;47.064;15.482;2023-07-13T05:00:10;18.50;99.90
7496;DHT22;3789;47.064;15.482;2023-07-13T05:02:42;18.70;99.90
7496;DHT22;3789;47.064;15.482;2023-07-13T05:05:12;18.90;99.90
7496;DHT22;3789;47.064;15.482;2023-07-13T05:07:49;19.10;99.90
7496;DHT22;3789;47.064;15.482;2023-07-13T05:10:21;19.40;99.90
7496;DHT22;3789;47.064;15.482;2023-07-13T05:12:51;19.50;99.90
7496;DHT22;3789;47.064;15.482;2023-07-13T05:15:22;19.80;99.90
7496;DHT22;3789;47.064;15.482;2023-07-13T05:17:55;20.00;99.90
7496;DHT22;3789;47.064;15.482;2023-07-13T05:20:24;20.20;99.90
7496;DHT22;3789;47.064;15.482;2023-07-13T05:22:54;20.40;99.90
7496;DHT22;3789;47.064;15.482;2023-07-13T05:25:25;20.50;99.90
7496;DHT22;3789;47.064;15.482;2023-07-13T05:27:59;20.50;99.90
7496;DHT22;3789;47.064;15.482;2023-07-13T05:30:29;20.40;99.90
7496;DHT22;3789;47.064;15.482;2023-07-13T05:33:06;20.20;99.90
7496;DHT22;3789;47.064;15.482;2023-07-13T05:35:43;20.20;99.90
7496;DHT22;3789;47.064;15.482;2023-07-13T05:38:12;20.40;99.90
7496;DHT22;3789;47.064;15.482;2023-07-13T05:40:46;20.70;99.90
7496;DHT22;3789;47.064;15.482;2023-07-13T05:43:19;21.00;99.90
7496;DHT22;3789;47.064;15.482;2023-07-13T05:45:53;20.80;99.90
7496;DHT22;3789;47.064;15.482;2023-07-13T05:48:30;20.80;99.90
7496;DHT22;3789;47.064;15.482;2023-07-13T05:50:59;20.80;99.90
7496;DHT22;3789;47.064;15.482;2023-07-13T05:53:28;20.70;99.90
7496;DHT22;3789;47.064;15.482;2023-07-13T05:56:04;21.00;99.90
7496;DHT22;3789;47.064;15.482;2023-07-13T05:58:56;21.20;99.90
7496;DHT22;3789;47.064;15.482;2023-07-13T06:01:53;21.20;99.90
7496;DHT22;3789;47.064;15.482;2023-07-13T06:04:22;21.20;99.90
7496;DHT22;3789;47.064;15.482;2023-07-13T06:06:51;21.10;99.90
7496;DHT22;3789;47.064;15.482;2023-07-13T06:09:22;21.50;99.90
7496;DHT22;3789;47.064;15.482;2023-07-13T06:11:52;21.70;99.90
7496;DHT22;3789;47.064;15.482;2023-07-13T06:14:23;21.80;99.90
7496;DHT22;3789;47.064;15.482;2023-07-13T06:16:53;22.00;99.90
7496;DHT22;3789;47.064;15.482;2023-07-13T06:19:22;22.10;99.90
7496;DHT22;3789;47.064;15.482;2023-07-13T06:21:52;22.20;99.90
7496;DHT22;3789;47.064;15.482;2023-07-13T06:24:26;22.50;99.90
7496;DHT22;3789;47.064;15.482;2023-07-13T06:26:55;22.70;99.90
7496;DHT22;3789;47.064;15.482;2023-07-13T06:29:24;22.90;99.90
7496;DHT22;3789;47.064;15.482;2023-07-13T06:31:54;23.10;99.90
7496;DHT22;3789;47.064;15.482;2023-07-13T06:34:23;23.00;99.90
7496;DHT22;3789;47.064;15.482;2023-07-13T06:37:00;22.90;99.90
7496;DHT22;3789;47.064;15.482;2023-07-13T06:39:31;22.60;99.90
7496;DHT22;3789;47.064;15.482;2023-07-13T06:42:06;22.60;99.90
7496;DHT22;3789;47.064;15.482;2023-07-13T06:44:42;22.80;99.90
7496;DHT22;3789;47.064;15.482;2023-07-13T06:47:11;22.90;99.90
7496;DHT22;3789;47.064;15.482;2023-07-13T06:49:40;22.90;99.90
7496;DHT22;3789;47.064;15.482;2023-07-13T06:52:10;22.90;99.90
7496;DHT22;3789;47.064;15.482;2023-07-13T06:54:38;22.50;99.90
7496;DHT22;3789;47.064;15.482;2023-07-13T06:57:09;22.40;99.90
7496;DHT22;3789;47.064;15.482;2023-07-13T06:59:43;22.50;99.90
7496;DHT22;3789;47.064;15.482;2023-07-13T07:02:14;22.50;99.90
7496;DHT22;3789;47.064;15.482;2023-07-13T07:04:44;22.50;99.90
7496;DHT22;3789;47.064;15.482;2023-07-13T07:07:12;22.60;99.90
7496;DHT22;3789;47.064;15.482;2023-07-13T07:09:50;22.70;99.90
7496;DHT22;3789;47.064;15.482;2023-07-13T07:12:22;22.90;99.90
7496;DHT22;3789;47.064;15.482;2023-07-13T07:14:58;23.10;99.90
7496;DHT22;3789;47.064;15.482;2023-07-13T07:17:37;23.20;99.90
7496;DHT22;3789;47.064;15.482;2023-07-13T07:20:07;23.20;99.90
7496;DHT22;3789;47.064;15.482;2023-07-13T07:22:40;23.60;99.90
7496;DHT22;3789;47.064;15.482;2023-07-13T07:25:13;23.90;99.90
7496;DHT22;3789;47.064;15.482;2023-07-13T07:27:51;23.80;99.90
7496;DHT22;3789;47.064;15.482;2023-07-13T07:30:21;24.00;99.90
7496;DHT22;3789;47.064;15.482;2023-07-13T07:32:55;24.40;99.90
7496;DHT22;3789;47.064;15.482;2023-07-13T07:35:33;24.60;99.90
7496;DHT22;3789;47.064;15.482;2023-07-13T07:38:26;24.60;99.90
7496;DHT22;3789;47.064;15.482;2023-07-13T07:40:56;24.40;99.90
7496;DHT22;3789;47.064;15.482;2023-07-13T07:43:28;24.20;99.90
7496;DHT22;3789;47.064;15.482;2023-07-13T07:45:56;24.10;99.90
7496;DHT22;3789;47.064;15.482;2023-07-13T07:48:33;24.10;99.90
7496;DHT22;3789;47.064;15.482;2023-07-13T07:51:04;24.10;99.90
7496;DHT22;3789;47.064;15.482;2023-07-13T07:53:33;24.10;99.90
7496;DHT22;3789;47.064;15.482;2023-07-13T07:56:10;24.20;99.90
7496;DHT22;3789;47.064;15.482;2023-07-13T07:58:58;24.10;99.90
7496;DHT22;3789;47.064;15.482;2023-07-13T08:01:50;24.20;99.90
7496;DHT22;3789;47.064;15.482;2023-07-13T08:04:21;24.30;99.90
7496;DHT22;3789;47.064;15.482;2023-07-13T08:07:10;24.60;99.90
7496;DHT22;3789;47.064;15.482;2023-07-13T08:09:46;24.90;99.90
7496;DHT22;3789;47.064;15.482;2023-07-13T08:12:16;24.90;99.90
7496;DHT22;3789;47.064;15.482;2023-07-13T08:14:54;25.00;99.90
7496;DHT22;3789;47.064;15.482;2023-07-13T08:17:35;25.60;99.90
7496;DHT22;3789;47.064;15.482;2023-07-13T08:20:06;26.20;99.90
7496;DHT22;3789;47.064;15.482;2023-07-13T08:22:36;26.50;99.90
7496;DHT22;3789;47.064;15.482;2023-07-13T08:25:06;26.40;99.90
7496;DHT22;3789;47.064;15.482;2023-07-13T08:27:40;26.50;99.90
7496;DHT22;3789;47.064;15.482;2023-07-13T08:30:11;26.50;99.90
7496;DHT22;3789;47.064;15.482;2023-07-13T08:32:40;26.50;99.90
7496;DHT22;3789;47.064;15.482;2023-07-13T08:35:10;26.50;99.90
7496;DHT22;3789;47.064;15.482;2023-07-13T08:37:38;26.50;99.90
7496;DHT22;3789;47.064;15.482;2023-07-13T08:40:18;26.30;99.90
7496;DHT22;3789;47.064;15.482;2023-07-13T08:42:59;26.20;99.90
7496;DHT22;3789;47.064;15.482;2023-07-13T08:46:23;26.40;99.90
7496;DHT22;3789;47.064;15.482;2023-07-13T08:49:05;26.60;99.90
7496;DHT22;3789;47.064;15.482;2023-07-13T08:52:01;26.90;99.90
7496;DHT22;3789;47.064;15.482;2023-07-13T08:54:45;27.20;99.40
7496;DHT22;3789;47.064;15.482;2023-07-13T08:57:21;26.90;99.90
7496;DHT22;3789;47.064;15.482;2023-07-13T08:59:59;27.20;99.90
7496;DHT22;3789;47.064;15.482;2023-07-13T09:05:42;27.90;99.90
7496;DHT22;3789;47.064;15.482;2023-07-13T09:12:14;28.00;99.90
7496;DHT22;3789;47.064;15.482;2023-07-13T09:15:41;27.40;99.90
7496;DHT22;3789;47.064;15.482;2023-07-13T09:18:46;27.20;99.90
7496;DHT22;3789;47.064;15.482;2023-07-13T09:21:47;27.30;99.90
7496;DHT22;3789;47.064;15.482;2023-07-13T09:24:51;27.40;99.90
7496;DHT22;3789;47.064;15.482;2023-07-13T09:27:39;27.40;99.90
7496;DHT22;3789;47.064;15.482;2023-07-13T09:30:40;26.50;99.90
7496;DHT22;3789;47.064;15.482;2023-07-13T09:33:34;26.10;99.90
7496;DHT22;3789;47.064;15.482;2023-07-13T09:36:31;26.30;99.90
7496;DHT22;3789;47.064;15.482;2023-07-13T09:39:25;26.30;99.90
7496;DHT22;3789;47.064;15.482;2023-07-13T09:42:22;26.80;99.90
7496;DHT22;3789;47.064;15.482;2023-07-13T09:45:00;27.20;99.10
7496;DHT22;3789;47.064;15.482;2023-07-13T09:47:40;27.40;99.40
7496;DHT22;3789;47.064;15.482;2023-07-13T09:50:16;27.90;99.90
7496;DHT22;3789;47.064;15.482;2023-07-13T09:52:53;28.10;99.80
7496;DHT22;3789;47.064;15.482;2023-07-13T09:55:31;28.30;98.10
7496;DHT22;3789;47.064;15.482;2023-07-13T09:58:30;28.30;97.60
7496;DHT22;3789;47.064;15.482;2023-07-13T10:01:06;28.20;97.30
7496;DHT22;3789;47.064;15.482;2023-07-13T10:03:51;28.10;96.60
7496;DHT22;3789;47.064;15.482;2023-07-13T10:06:28;28.30;99.90
7496;DHT22;3789;47.064;15.482;2023-07-13T10:09:02;28.10;97.80
7496;DHT22;3789;47.064;15.482;2023-07-13T10:11:41;27.90;99.90
7496;DHT22;3789;47.064;15.482;2023-07-13T10:14:16;27.70;97.80
7496;DHT22;3789;47.064;15.482;2023-07-13T10:16:59;27.30;98.90
7496;DHT22;3789;47.064;15.482;2023-07-13T10:19:42;27.00;98.40
7496;DHT22;3789;47.064;15.482;2023-07-13T10:22:27;27.20;99.80
7496;DHT22;3789;47.064;15.482;2023-07-13T10:25:19;27.30;99.90
7496;DHT22;3789;47.064;15.482;2023-07-13T10:28:19;27.90;99.70
7496;DHT22;3789;47.064;15.482;2023-07-13T10:31:02;28.20;97.90
7496;DHT22;3789;47.064;15.482;2023-07-13T10:33:38;28.40;97.80
7496;DHT22;3789;47.064;15.482;2023-07-13T10:36:40;28.40;98.20
7496;DHT22;3789;47.064;15.482;2023-07-13T10:39:30;28.40;99.90
7496;DHT22;3789;47.064;15.482;2023-07-13T10:42:08;28.50;96.70
7496;DHT22;3789;47.064;15.482;2023-07-13T10:45:17;28.60;99.90
7496;DHT22;3789;47.064;15.482;2023-07-13T10:47:53;28.70;96.20
7496;DHT22;3789;47.064;15.482;2023-07-13T10:50:28;28.60;98.10
7496;DHT22;3789;47.064;15.482;2023-07-13T10:53:16;28.90;97.00
7496;DHT22;3789;47.064;15.482;2023-07-13T10:56:19;28.90;97.00
7496;DHT22;3789;47.064;15.482;2023-07-13T10:59:14;28.30;98.30
7496;DHT22;3789;47.064;15.482;2023-07-13T11:02:24;27.60;98.10
7496;DHT22;3789;47.064;15.482;2023-07-13T11:05:31;27.90;99.40
7496;DHT22;3789;47.064;15.482;2023-07-13T11:11:36;28.10;98.60
7496;DHT22;3789;47.064;15.482;2023-07-13T11:14:37;27.60;96.80
7496;DHT22;3789;47.064;15.482;2023-07-13T11:17:54;27.30;96.80
7496;DHT22;3789;47.064;15.482;2023-07-13T11:20:42;27.50;96.10
7496;DHT22;3789;47.064;15.482;2023-07-13T11:23:38;27.80;96.20
7496;DHT22;3789;47.064;15.482;2023-07-13T11:26:41;27.80;96.00
7496;DHT22;3789;47.064;15.482;2023-07-13T11:29:38;28.10;95.70
7496;DHT22;3789;47.064;15.482;2023-07-13T11:32:25;28.40;95.20
7496;DHT22;3789;47.064;15.482;2023-07-13T11:34:59;28.60;95.40
7496;DHT22;3789;47.064;15.482;2023-07-13T11:37:30;28.90;96.50
7496;DHT22;3789;47.064;15.482;2023-07-13T11:40:04;29.30;96.70
7496;DHT22;3789;47.064;15.482;2023-07-13T11:42:38;29.40;96.10
7496;DHT22;3789;47.064;15.482;2023-07-13T11:45:21;29.20;96.70
7496;DHT22;3789;47.064;15.482;2023-07-13T11:48:23;28.50;98.10
7496;DHT22;3789;47.064;15.482;2023-07-13T11:51:02;28.10;98.70
7496;DHT22;3789;47.064;15.482;2023-07-13T11:53:46;28.00;98.60
7496;DHT22;3789;47.064;15.482;2023-07-13T11:56:22;28.30;99.90
7496;DHT22;3789;47.064;15.482;2023-07-13T11:58:56;28.20;99.90
7496;DHT22;3789;47.064;15.482;2023-07-13T12:01:33;28.10;99.90
7496;DHT22;3789;47.064;15.482;2023-07-13T12:04:05;27.80;99.90
7496;DHT22;3789;47.064;15.482;2023-07-13T12:06:42;27.70;99.90
7496;DHT22;3789;47.064;15.482;2023-07-13T12:09:15;27.50;99.90
7496;DHT22;3789;47.064;15.482;2023-07-13T12:12:12;27.10;99.90
7496;DHT22;3789;47.064;15.482;2023-07-13T12:14:44;26.90;99.90
7496;DHT22;3789;47.064;15.482;2023-07-13T12:17:21;27.00;99.90
7496;DHT22;3789;47.064;15.482;2023-07-13T12:19:53;27.00;99.90
7496;DHT22;3789;47.064;15.482;2023-07-13T12:22:24;27.20;99.90
7496;DHT22;3789;47.064;15.482;2023-07-13T12:24:54;27.50;99.90
7496;DHT22;3789;47.064;15.482;2023-07-13T12:27:31;27.60;99.90
7496;DHT22;3789;47.064;15.482;2023-07-13T12:33:30;27.30;99.90
7496;DHT22;3789;47.064;15.482;2023-07-13T12:36:15;27.10;99.90
7496;DHT22;3789;47.064;15.482;2023-07-13T12:38:46;26.70;99.90
7496;DHT22;3789;47.064;15.482;2023-07-13T12:41:15;26.30;99.90
7496;DHT22;3789;47.064;15.482;2023-07-13T12:43:45;26.00;99.90
7496;DHT22;3789;47.064;15.482;2023-07-13T12:46:26;25.80;99.90
7496;DHT22;3789;47.064;15.482;2023-07-13T12:49:00;25.70;99.90
7496;DHT22;3789;47.064;15.482;2023-07-13T12:51:50;25.50;99.90
7496;DHT22;3789;47.064;15.482;2023-07-13T12:54:42;25.40;99.90
7496;DHT22;3789;47.064;15.482;2023-07-13T12:57:49;25.10;99.90
7496;DHT22;3789;47.064;15.482;2023-07-13T13:00:35;24.70;99.90
7496;DHT22;3789;47.064;15.482;2023-07-13T13:03:31;24.30;99.90
7496;DHT22;3789;47.064;15.482;2023-07-13T13:06:28;24.10;99.90
7496;DHT22;3789;47.064;15.482;2023-07-13T13:09:02;24.00;99.90
7496;DHT22;3789;47.064;15.482;2023-07-13T13:11:39;23.80;99.90
7496;DHT22;3789;47.064;15.482;2023-07-13T13:14:10;23.70;99.90
7496;DHT22;3789;47.064;15.482;2023-07-13T13:16:50;23.70;99.90
7496;DHT22;3789;47.064;15.482;2023-07-13T13:19:26;23.60;99.90
7496;DHT22;3789;47.064;15.482;2023-07-13T13:21:57;23.60;99.90
7496;DHT22;3789;47.064;15.482;2023-07-13T13:24:29;23.50;99.90
7496;DHT22;3789;47.064;15.482;2023-07-13T13:27:08;23.50;99.90
7496;DHT22;3789;47.064;15.482;2023-07-13T13:29:49;23.50;99.90
7496;DHT22;3789;47.064;15.482;2023-07-13T13:32:25;23.40;99.90
7496;DHT22;3789;47.064;15.482;2023-07-13T13:34:55;23.30;99.90
7496;DHT22;3789;47.064;15.482;2023-07-13T13:37:24;23.20;99.90
7496;DHT22;3789;47.064;15.482;2023-07-13T13:40:16;23.10;99.90
7496;DHT22;3789;47.064;15.482;2023-07-13T13:42:51;23.10;99.90
7496;DHT22;3789;47.064;15.482;2023-07-13T13:45:39;22.90;99.90
7496;DHT22;3789;47.064;15.482;2023-07-13T13:48:20;22.80;99.90
7496;DHT22;3789;47.064;15.482;2023-07-13T13:51:21;22.80;99.90
7496;DHT22;3789;47.064;15.482;2023-07-13T13:53:54;22.70;99.90
7496;DHT22;3789;47.064;15.482;2023-07-13T13:56:26;22.70;99.90
7496;DHT22;3789;47.064;15.482;2023-07-13T13:59:03;22.80;99.90
7496;DHT22;3789;47.064;15.482;2023-07-13T14:01:33;22.50;99.90
7496;DHT22;3789;47.064;15.482;2023-07-13T14:04:04;22.10;99.90
7496;DHT22;3789;47.064;15.482;2023-07-13T14:06:57;21.60;99.90
7496;DHT22;3789;47.064;15.482;2023-07-13T14:09:27;20.30;99.90
7496;DHT22;3789;47.064;15.482;2023-07-13T14:11:57;19.90;99.90
7496;DHT22;3789;47.064;15.482;2023-07-13T14:14:30;19.70;99.90
7496;DHT22;3789;47.064;15.482;2023-07-13T14:17:00;19.60;99.90
7496;DHT22;3789;47.064;15.482;2023-07-13T14:19:30;19.50;99.90
7496;DHT22;3789;47.064;15.482;2023-07-13T14:21:59;19.50;99.90
7496;DHT22;3789;47.064;15.482;2023-07-13T14:24:28;19.50;99.90
7496;DHT22;3789;47.064;15.482;2023-07-13T14:27:04;19.40;99.90
7496;DHT22;3789;47.064;15.482;2023-07-13T14:29:42;19.30;99.90
7496;DHT22;3789;47.064;15.482;2023-07-13T14:32:20;19.30;99.90
7496;DHT22;3789;47.064;15.482;2023-07-13T14:34:50;19.30;99.90
7496;DHT22;3789;47.064;15.482;2023-07-13T14:37:21;19.20;99.90
7496;DHT22;3789;47.064;15.482;2023-07-13T14:39:52;19.10;99.90
7496;DHT22;3789;47.064;15.482;2023-07-13T14:42:22;19.10;99.90
7496;DHT22;3789;47.064;15.482;2023-07-13T14:44:54;19.00;99.90
7496;DHT22;3789;47.064;15.482;2023-07-13T14:47:33;19.00;99.90
7496;DHT22;3789;47.064;15.482;2023-07-13T14:50:25;19.10;99.90
7496;DHT22;3789;47.064;15.482;2023-07-13T14:53:12;19.10;99.90
7496;DHT22;3789;47.064;15.482;2023-07-13T14:55:41;19.20;99.90
7496;DHT22;3789;47.064;15.482;2023-07-13T14:58:10;19.20;99.90
7496;DHT22;3789;47.064;15.482;2023-07-13T15:00:40;19.30;99.90
7496;DHT22;3789;47.064;15.482;2023-07-13T15:03:23;19.20;99.90
7496;DHT22;3789;47.064;15.482;2023-07-13T15:05:55;19.10;99.90
7496;DHT22;3789;47.064;15.482;2023-07-13T15:08:25;19.10;99.90
7496;DHT22;3789;47.064;15.482;2023-07-13T15:10:54;19.10;99.90
7496;DHT22;3789;47.064;15.482;2023-07-13T15:13:30;19.10;99.90
7496;DHT22;3789;47.064;15.482;2023-07-13T15:16:00;19.20;99.90
7496;DHT22;3789;47.064;15.482;2023-07-13T15:18:30;19.20;99.90
7496;DHT22;3789;47.064;15.482;2023-07-13T15:21:09;19.30;99.90
7496;DHT22;3789;47.064;15.482;2023-07-13T15:23:43;19.30;99.90
7496;DHT22;3789;47.064;15.482;2023-07-13T15:26:15;19.30;99.90
7496;DHT22;3789;47.064;15.482;2023-07-13T15:28:54;19.20;99.90
7496;DHT22;3789;47.064;15.482;2023-07-13T15:31:26;19.10;99.90
7496;DHT22;3789;47.064;15.482;2023-07-13T15:34:00;18.90;99.90
7496;DHT22;3789;47.064;15.482;2023-07-13T15:36:31;18.60;99.90
7496;DHT22;3789;47.064;15.482;2023-07-13T15:39:07;18.50;99.90
7496;DHT22;3789;47.064;15.482;2023-07-13T15:41:38;18.40;99.90
7496;DHT22;3789;47.064;15.482;2023-07-13T15:44:42;18.30;99.90
7496;DHT22;3789;47.064;15.482;2023-07-13T15:47:13;18.30;99.90
7496;DHT22;3789;47.064;15.482;2023-07-13T15:49:46;18.30;99.90
7496;DHT22;3789;47.064;15.482;2023-07-13T15:52:23;18.30;99.90
7496;DHT22;3789;47.064;15.482;2023-07-13T15:54:54;18.30;99.90
7496;DHT22;3789;47.064;15.482;2023-07-13T15:57:25;18.30;99.90
7496;DHT22;3789;47.064;15.482;2023-07-13T15:59:57;18.40;99.90
7496;DHT22;3789;47.064;15.482;2023-07-13T16:02:27;18.60;99.90
7496;DHT22;3789;47.064;15.482;2023-07-13T16:05:03;18.60;99.90
7496;DHT22;3789;47.064;15.482;2023-07-13T16:07:34;18.30;99.90
7496;DHT22;3789;47.064;15.482;2023-07-13T16:10:05;18.10;99.90
7496;DHT22;3789;47.064;15.482;2023-07-13T16:12:44;18.00;99.90
7496;DHT22;3789;47.064;15.482;2023-07-13T16:15:16;17.90;99.90
7496;DHT22;3789;47.064;15.482;2023-07-13T16:17:48;17.80;99.90
7496;DHT22;3789;47.064;15.482;2023-07-13T16:20:24;17.70;99.90
7496;DHT22;3789;47.064;15.482;2023-07-13T16:22:55;17.60;99.90
7496;DHT22;3789;47.064;15.482;2023-07-13T16:25:29;17.60;99.90
7496;DHT22;3789;47.064;15.482;2023-07-13T16:28:09;17.60;99.90
7496;DHT22;3789;47.064;15.482;2023-07-13T16:30:50;17.70;99.90
7496;DHT22;3789;47.064;15.482;2023-07-13T16:33:27;17.80;99.90
7496;DHT22;3789;47.064;15.482;2023-07-13T16:35:55;17.80;99.90
7496;DHT22;3789;47.064;15.482;2023-07-13T16:38:24;17.90;99.90
7496;DHT22;3789;47.064;15.482;2023-07-13T16:40:53;18.00;99.90
7496;DHT22;3789;47.064;15.482;2023-07-13T16:43:31;18.00;99.90
7496;DHT22;3789;47.064;15.482;2023-07-13T16:46:01;18.10;99.90
7496;DHT22;3789;47.064;15.482;2023-07-13T16:48:33;18.10;99.90
7496;DHT22;3789;47.064;15.482;2023-07-13T16:51:01;18.20;99.90
7496;DHT22;3789;47.064;15.482;2023-07-13T16:53:32;18.30;99.90
7496;DHT22;3789;47.064;15.482;2023-07-13T16:56:16;18.40;99.90
7496;DHT22;3789;47.064;15.482;2023-07-13T16:58:54;18.50;99.90